Time;durP1;ratioP1;P1;durP2;ratioP2;P2;SDS_P1;SDS_P2;PMS_P1;PMS_P2;Temp;Humidity;BMP_temperature;BMP_pressure;BME280_temperature;BME280_humidity;BME280_pressure;Samples;Min_cycle;Max_cycle;Signal;HPM_P1;HPM_P2
2024/01/28 00:10:08;;;;;;;1.85;0.80;;;;;;;;;;20861218;28;20099;-69
2024/01/28 00:20:28;;;;;;;0.82;0.75;;;;;;;;;;20847154;28;20042;-70
2024/01/28 00:30:48;;;;;;;1.50;0.90;;;;;;;;;;20845888;28;20042;-72
2024/01/28 00:41:07;;;;;;;0.65;0.65;;;;;;;;;;20844465;28;20067;-72
2024/01/28 00:51:26;;;;;;;1.00;0.90;;;;;;;;;;20819784;28;20060;-73
2024/01/28 01:01:46;;;;;;;0.80;0.75;;;;;;;;;;20844745;28;20042;-72
2024/01/28 01:12:06;;;;;;;0.95;0.85;;;;;;;;;;20851103;28;20490;-72
2024/01/28 01:22:25;;;;;;;1.40;0.90;;;;;;;;;;20859545;28;20041;-72
2024/01/28 01:32:45;;;;;;;1.02;0.80;;;;;;;;;;20860320;28;20037;-73
2024/01/28 01:43:10;;;;;;;1.00;0.90;;;;;;;;;;20857408;28;20042;-70
2024/01/28 01:53:30;;;;;;;1.25;1.00;;;;;;;;;;20835111;28;20598;-69
2024/01/28 02:03:51;;;;;;;1.92;1.20;;;;;;;;;;20856599;28;20045;-69
2024/01/28 02:14:19;;;;;;;2.65;1.10;;;;;;;;;;20857162;28;20049;-73
2024/01/28 02:24:39;;;;;;;1.08;0.98;;;;;;;;;;20855112;28;20041;-72
2024/01/28 02:34:59;;;;;;;1.10;1.00;;;;;;;;;;20854140;28;20417;-72
2024/01/28 02:45:19;;;;;;;1.00;1.00;;;;;;;;;;20846056;28;20053;-72
2024/01/28 02:55:39;;;;;;;1.13;1.00;;;;;;;;;;20853437;28;20333;-72
2024/01/28 03:05:58;;;;;;;1.30;1.10;;;;;;;;;;20852752;28;20045;-72
2024/01/28 03:16:17;;;;;;;0.88;0.80;;;;;;;;;;20852266;28;20045;-72
2024/01/28 03:26:37;;;;;;;1.20;1.10;;;;;;;;;;20851439;28;20049;-72
2024/01/28 03:36:56;;;;;;;1.60;1.10;;;;;;;;;;20769485;28;20054;-72
2024/01/28 03:47:15;;;;;;;1.77;1.17;;;;;;;;;;20834862;28;20060;-72
2024/01/28 03:57:39;;;;;;;1.17;1.00;;;;;;;;;;20849036;28;20045;-72
2024/01/28 04:07:58;;;;;;;1.50;1.27;;;;;;;;;;20848155;28;20045;-72
2024/01/28 04:18:17;;;;;;;1.73;1.20;;;;;;;;;;20847241;28;20383;-72
2024/01/28 04:28:37;;;;;;;1.35;1.10;;;;;;;;;;20845769;28;20103;-72
2024/01/28 04:38:58;;;;;;;1.98;1.20;;;;;;;;;;20846136;28;20490;-72
2024/01/28 04:49:17;;;;;;;1.20;1.05;;;;;;;;;;20826279;28;20045;-73
2024/01/28 04:59:37;;;;;;;1.70;1.20;;;;;;;;;;20844367;28;20060;-72
2024/01/28 05:09:57;;;;;;;2.00;1.27;;;;;;;;;;20844832;28;20046;-69
2024/01/28 05:20:16;;;;;;;1.75;1.40;;;;;;;;;;20843644;28;20041;-72
2024/01/28 05:30:36;;;;;;;1.92;1.52;;;;;;;;;;20843969;28;20080;-72
2024/01/28 05:40:55;;;;;;;1.40;1.30;;;;;;;;;;20843272;28;20041;-73
2024/01/28 05:51:14;;;;;;;1.35;1.25;;;;;;;;;;20818631;28;20062;-73
2024/01/28 06:01:34;;;;;;;1.55;1.30;;;;;;;;;;20853730;28;20045;-72
2024/01/28 06:11:53;;;;;;;2.05;1.60;;;;;;;;;;20857327;28;20383;-72
2024/01/28 06:22:14;;;;;;;1.80;1.55;;;;;;;;;;20775868;28;20045;-69
2024/01/28 06:32:34;;;;;;;2.00;1.52;;;;;;;;;;20828539;28;20548;-69
2024/01/28 06:42:53;;;;;;;2.17;1.73;;;;;;;;;;20853315;28;20046;-69
2024/01/28 06:53:13;;;;;;;2.45;1.65;;;;;;;;;;20830938;28;20072;-69
2024/01/28 07:03:32;;;;;;;2.40;1.70;;;;;;;;;;20851805;28;20441;-70
2024/01/28 07:13:51;;;;;;;2.33;1.83;;;;;;;;;;20851056;28;20041;-69
2024/01/28 07:24:11;;;;;;;2.08;1.80;;;;;;;;;;20836325;28;20092;-69
2024/01/28 07:34:30;;;;;;;2.63;2.10;;;;;;;;;;20850536;28;20664;-72
2024/01/28 07:44:49;;;;;;;2.20;1.92;;;;;;;;;;20829915;28;20111;-72
2024/01/28 07:55:10;;;;;;;2.50;2.10;;;;;;;;;;20849203;28;20076;-72
2024/01/28 08:05:29;;;;;;;1.95;1.77;;;;;;;;;;20847531;28;20453;-74
2024/01/28 08:15:48;;;;;;;2.38;2.17;;;;;;;;;;20847329;28;20045;-72
2024/01/28 08:26:08;;;;;;;3.17;2.20;;;;;;;;;;20846030;28;20080;-72
2024/01/28 08:36:28;;;;;;;2.83;2.03;;;;;;;;;;20846118;28;20502;-72
2024/01/28 08:46:47;;;;;;;2.33;1.83;;;;;;;;;;20765999;28;20058;-72
2024/01/28 08:57:08;;;;;;;1.88;1.67;;;;;;;;;;20814528;28;20132;-72
2024/01/28 09:07:28;;;;;;;2.20;2.00;;;;;;;;;;20843074;28;20461;-72
2024/01/28 09:17:47;;;;;;;2.50;1.92;;;;;;;;;;20844214;28;20053;-72
2024/01/28 09:28:07;;;;;;;2.20;2.00;;;;;;;;;;20843691;28;20045;-72
2024/01/28 09:38:26;;;;;;;2.15;1.95;;;;;;;;;;20814118;28;20050;-72
2024/01/28 09:48:46;;;;;;;2.17;1.98;;;;;;;;;;20828245;28;20054;-69
2024/01/28 09:59:07;;;;;;;1.90;1.70;;;;;;;;;;20858372;28;20091;-72
2024/01/28 10:09:28;;;;;;;2.20;1.83;;;;;;;;;;20857262;28;20048;-72
2024/01/28 10:19:47;;;;;;;1.70;1.50;;;;;;;;;;20855526;28;20049;-72
2024/01/28 10:30:06;;;;;;;1.83;1.70;;;;;;;;;;20855998;28;20046;-72
2024/01/28 10:40:30;;;;;;;2.05;1.60;;;;;;;;;;20852017;28;20123;-72
2024/01/28 10:50:50;;;;;;;1.90;1.60;;;;;;;;;;20828325;28;20065;-72
2024/01/28 11:01:11;;;;;;;1.80;1.60;;;;;;;;;;20851094;28;20056;-69
2024/01/28 11:11:30;;;;;;;1.80;1.70;;;;;;;;;;20849332;28;20053;-73
2024/01/28 11:21:51;;;;;;;1.55;1.45;;;;;;;;;;20848525;28;20037;-73
2024/01/28 11:32:12;;;;;;;2.08;1.60;;;;;;;;;;20831997;28;20079;-73
2024/01/28 11:42:31;;;;;;;1.98;1.70;;;;;;;;;;20820140;28;20058;-73
2024/01/28 11:52:51;;;;;;;1.50;1.40;;;;;;;;;;20824898;28;20053;-73
2024/01/28 12:03:10;;;;;;;1.60;1.50;;;;;;;;;;20845878;28;20049;-73
2024/01/28 12:13:31;;;;;;;1.40;1.30;;;;;;;;;;20846923;28;20046;-73
2024/01/28 12:23:59;;;;;;;1.48;1.23;;;;;;;;;;20819805;28;20045;-74
2024/01/28 12:34:18;;;;;;;1.60;1.50;;;;;;;;;;20846151;28;20041;-73
2024/01/28 12:44:38;;;;;;;1.40;1.30;;;;;;;;;;20839995;28;20083;-73
2024/01/28 12:54:57;;;;;;;1.48;1.23;;;;;;;;;;20818292;28;20418;-73
2024/01/28 13:05:17;;;;;;;1.25;1.15;;;;;;;;;;20848121;28;20073;-73
2024/01/28 13:15:36;;;;;;;1.38;1.27;;;;;;;;;;20860948;28;20417;-73
2024/01/28 13:25:55;;;;;;;1.50;1.40;;;;;;;;;;20842385;28;20050;-70
2024/01/28 13:36:15;;;;;;;1.38;1.27;;;;;;;;;;20859376;28;20037;-69
2024/01/28 13:46:34;;;;;;;1.65;1.10;;;;;;;;;;20846588;28;20547;-69
2024/01/28 13:56:54;;;;;;;1.85;1.30;;;;;;;;;;20857426;28;20095;-72
2024/01/28 14:07:14;;;;;;;1.13;1.05;;;;;;;;;;20856972;28;20049;-73
2024/01/28 14:17:33;;;;;;;1.40;1.30;;;;;;;;;;20827477;28;20045;-73
2024/01/28 14:27:53;;;;;;;1.30;1.20;;;;;;;;;;20856502;28;20060;-69
2024/01/28 14:38:12;;;;;;;1.27;1.17;;;;;;;;;;20855339;28;20037;-69
2024/01/28 14:48:34;;;;;;;1.40;1.27;;;;;;;;;;20837509;28;20053;-69
2024/01/28 14:58:54;;;;;;;1.20;1.10;;;;;;;;;;20853720;28;20045;-73
2024/01/28 15:09:13;;;;;;;1.35;1.25;;;;;;;;;;20853060;28;20056;-72
2024/01/28 15:19:32;;;;;;;1.25;1.08;;;;;;;;;;20830135;28;20045;-73
2024/01/28 15:29:52;;;;;;;1.42;1.33;;;;;;;;;;20851214;28;20072;-72
2024/01/28 15:40:11;;;;;;;1.40;1.30;;;;;;;;;;20850357;28;20041;-69
2024/01/28 15:50:31;;;;;;;1.35;1.20;;;;;;;;;;20819701;28;20572;-69
2024/01/28 16:00:50;;;;;;;1.83;1.17;;;;;;;;;;20847788;28;20046;-69
2024/01/28 16:11:10;;;;;;;1.48;1.20;;;;;;;;;;20837959;28;20049;-72
2024/01/28 16:21:29;;;;;;;2.25;1.80;;;;;;;;;;20845834;28;20095;-73
2024/01/28 16:31:48;;;;;;;2.10;1.95;;;;;;;;;;20846749;28;20046;-72
2024/01/28 16:42:07;;;;;;;2.88;2.20;;;;;;;;;;20844852;28;20076;-72
2024/01/28 16:52:27;;;;;;;2.30;1.88;;;;;;;;;;20818814;28;20419;-73
2024/01/28 17:02:46;;;;;;;2.50;2.30;;;;;;;;;;20845441;28;20045;-72
2024/01/28 17:13:06;;;;;;;2.55;2.10;;;;;;;;;;20820218;28;20045;-73
2024/01/28 17:23:26;;;;;;;2.25;2.05;;;;;;;;;;20844537;28;20041;-69
2024/01/28 17:33:45;;;;;;;2.30;2.10;;;;;;;;;;20843108;28;20049;-69
2024/01/28 17:44:05;;;;;;;2.38;2.13;;;;;;;;;;20839190;28;20406;-69
2024/01/28 17:54:24;;;;;;;2.45;2.20;;;;;;;;;;20824004;28;20440;-70
2024/01/28 18:04:43;;;;;;;5.38;3.65;;;;;;;;;;20829980;28;20049;-73
2024/01/28 18:15:03;;;;;;;7.68;3.97;;;;;;;;;;20841974;28;20046;-73
2024/01/28 18:25:24;;;;;;;7.32;4.15;;;;;;;;;;20790529;28;20045;-73
2024/01/28 18:35:43;;;;;;;5.72;3.85;;;;;;;;;;20798151;28;20517;-72
2024/01/28 18:46:02;;;;;;;7.97;3.90;;;;;;;;;;20778000;28;20049;-72
2024/01/28 18:56:22;;;;;;;5.35;3.78;;;;;;;;;;20781994;28;20096;-71
2024/01/28 19:06:42;;;;;;;4.90;3.78;;;;;;;;;;20762444;28;20096;-71
2024/01/28 19:17:01;;;;;;;5.15;3.92;;;;;;;;;;20834521;28;20041;-72
2024/01/28 19:27:21;;;;;;;7.25;4.15;;;;;;;;;;20824193;28;20057;-73
2024/01/28 19:37:40;;;;;;;9.23;3.90;;;;;;;;;;20803567;28;20534;-71
2024/01/28 19:47:59;;;;;;;8.10;4.57;;;;;;;;;;20782336;28;20052;-73
2024/01/28 19:58:21;;;;;;;7.28;4.50;;;;;;;;;;20823435;28;20087;-72
2024/01/28 20:08:40;;;;;;;8.75;4.22;;;;;;;;;;20786855;28;20518;-72
2024/01/28 20:18:59;;;;;;;7.93;4.25;;;;;;;;;;20796243;28;20052;-73
2024/01/28 20:29:19;;;;;;;6.97;3.85;;;;;;;;;;20815735;28;20057;-72
2024/01/28 20:39:39;;;;;;;7.90;3.95;;;;;;;;;;20792163;28;20038;-72
2024/01/28 20:49:58;;;;;;;7.07;3.95;;;;;;;;;;20785108;28;20041;-72
2024/01/28 21:00:18;;;;;;;6.65;4.05;;;;;;;;;;20836710;28;20045;-72
2024/01/28 21:10:39;;;;;;;5.07;3.90;;;;;;;;;;20785096;28;20391;-73
2024/01/28 21:20:59;;;;;;;6.20;4.00;;;;;;;;;;20804373;28;20045;-73
2024/01/28 21:31:18;;;;;;;4.90;3.80;;;;;;;;;;20830352;28;20429;-74
2024/01/28 21:41:38;;;;;;;4.90;4.28;;;;;;;;;;20833539;28;20052;-70
2024/01/28 21:51:57;;;;;;;6.00;3.85;;;;;;;;;;20821739;28;20053;-70
2024/01/28 22:02:17;;;;;;;5.35;3.63;;;;;;;;;;20826895;28;20048;-70
2024/01/28 22:12:36;;;;;;;4.68;3.67;;;;;;;;;;20853196;28;20046;-70
2024/01/28 22:22:55;;;;;;;5.72;4.00;;;;;;;;;;20855925;28;20049;-69
2024/01/28 22:33:15;;;;;;;6.53;3.70;;;;;;;;;;20851199;28;20593;-70
2024/01/28 22:43:34;;;;;;;5.50;3.95;;;;;;;;;;20846927;28;20064;-69
2024/01/28 22:53:53;;;;;;;5.60;3.80;;;;;;;;;;20828496;28;20417;-72
2024/01/28 23:04:13;;;;;;;4.78;3.72;;;;;;;;;;20853866;28;20037;-73
2024/01/28 23:14:33;;;;;;;5.28;3.78;;;;;;;;;;20853680;28;20049;-73
2024/01/28 23:24:52;;;;;;;4.40;3.50;;;;;;;;;;20787730;28;20482;-73
2024/01/28 23:35:11;;;;;;;5.18;3.70;;;;;;;;;;20851050;28;20156;-73
2024/01/28 23:45:30;;;;;;;5.60;3.88;;;;;;;;;;20841271;28;20049;-73
2024/01/28 23:55:50;;;;;;;5.45;3.53;;;;;;;;;;20792913;28;20568;-73
